Terminal Aerodrome Forecast
Issued by NWS Cleveland, OH

Home | Current Version | Previous Version | Text Only | Print | Product List | Glossary On
Versions: 1 2 3 4 5 6 7 8 9 10 11 12 13 14 15
023
FTUS41 KCLE 191149 CCA
TAFMFD
TAF COR
KMFD 191149Z 1912/2012 25008KT P6SM SCT005 SCT250
      TEMPO 1912/1913 4SM BR BKN005
     FM191500 28008KT P6SM SCT250
     FM200000 03004KT P6SM SKC=

USA.gov is the U.S. government's official web portal to all federal, state and local government web resources and services.